USA761 UZTT-UZSR
Flight info
| Callsign | USA761 |
|---|---|
| Flight time | N/A |
| Altitude | 16000 |
| Route | KUFIM2A KUFIM DCT NETAT DCT TITAR DCT RONVU/K0509F170 DCT USETU DCT ARPIZ DCT LAVMI DCT FIZLE FIZLE2Y |
| Aircraft | AT76/M-SDFGIRY/S |
Departure
| Time | 2026-04-23 15:13 |
|---|---|
| Airport | Tashkent International Airport (UZTT) |
Arrival
| Time | N/A |
|---|---|
| Airport | UZSR |
| Time | Latitude | Longitude | Altitude | Speed | Heading |
|---|---|---|---|---|---|
| 2026-04-23 15:13 | 41.20891 | 69.28729 | 4495 ft | 210 kts | 232° |
| 2026-04-23 15:13 | 41.19991 | 69.27324 | 5023 ft | 210 kts | 231° |
| 2026-04-23 15:14 | 41.18773 | 69.25452 | 5722 ft | 209 kts | 230° |
| 2026-04-23 15:14 | 41.17825 | 69.24000 | 6260 ft | 209 kts | 230° |
| 2026-04-23 15:14 | 41.17003 | 69.22743 | 6721 ft | 209 kts | 230° |
| 2026-04-23 15:14 | 41.16039 | 69.21268 | 7253 ft | 209 kts | 230° |
| 2026-04-23 15:15 | 41.15086 | 69.19813 | 7770 ft | 210 kts | 229° |
| 2026-04-23 15:15 | 41.14133 | 69.18358 | 8278 ft | 210 kts | 229° |
| 2026-04-23 15:15 | 41.13181 | 69.16906 | 8777 ft | 211 kts | 229° |
| 2026-04-23 15:15 | 41.12215 | 69.15432 | 9275 ft | 212 kts | 228° |
| 2026-04-23 15:16 | 41.11248 | 69.13958 | 9763 ft | 214 kts | 228° |
| 2026-04-23 15:16 | 41.10277 | 69.12479 | 10238 ft | 215 kts | 227° |
| 2026-04-23 15:16 | 41.09297 | 69.10987 | 10705 ft | 217 kts | 227° |
| 2026-04-23 15:16 | 41.08316 | 69.09495 | 11168 ft | 219 kts | 227° |
| 2026-04-23 15:17 | 41.07321 | 69.07982 | 11630 ft | 220 kts | 227° |
| 2026-04-23 15:17 | 41.06327 | 69.06470 | 12085 ft | 222 kts | 227° |
| 2026-04-23 15:17 | 41.05351 | 69.04991 | 12532 ft | 223 kts | 227° |
| 2026-04-23 15:17 | 41.04365 | 69.03515 | 12985 ft | 224 kts | 226° |
| 2026-04-23 15:18 | 41.03141 | 69.01694 | 13541 ft | 224 kts | 227° |
| 2026-04-23 15:18 | 41.02027 | 69.00208 | 13963 ft | 226 kts | 212° |
| 2026-04-23 15:18 | 41.00604 | 68.99309 | 14375 ft | 228 kts | 203° |
| 2026-04-23 15:18 | 40.99159 | 68.98521 | 14877 ft | 226 kts | 202° |
| 2026-04-23 15:19 | 40.97693 | 68.97739 | 15333 ft | 226 kts | 202° |
| 2026-04-23 15:19 | 40.96241 | 68.96970 | 15769 ft | 228 kts | 202° |
| 2026-04-23 15:19 | 40.94776 | 68.96195 | 16204 ft | 229 kts | 202° |
| 2026-04-23 15:19 | 40.93301 | 68.95414 | 16641 ft | 229 kts | 202° |
| 2026-04-23 15:20 | 40.92310 | 68.94890 | 16932 ft | 230 kts | 202° |
| 2026-04-23 15:20 | 40.90346 | 68.93852 | 17498 ft | 231 kts | 203° |
| 2026-04-23 15:20 | 40.88855 | 68.93063 | 17922 ft | 232 kts | 203° |
| 2026-04-23 15:20 | 40.87384 | 68.92287 | 18334 ft | 233 kts | 204° |
| 2026-04-23 15:21 | 40.85882 | 68.91493 | 18748 ft | 234 kts | 204° |
| 2026-04-23 15:21 | 40.84379 | 68.90701 | 19156 ft | 235 kts | 204° |
| 2026-04-23 15:21 | 40.82864 | 68.89902 | 19558 ft | 236 kts | 204° |
| 2026-04-23 15:21 | 40.81324 | 68.89091 | 19971 ft | 237 kts | 205° |
| 2026-04-23 15:22 | 40.79781 | 68.88277 | 20204 ft | 245 kts | 205° |
| 2026-04-23 15:22 | 40.78173 | 68.87427 | 20310 ft | 256 kts | 205° |
| 2026-04-23 15:22 | 40.76500 | 68.86546 | 20452 ft | 264 kts | 205° |
| 2026-04-23 15:22 | 40.74778 | 68.85639 | 20566 ft | 270 kts | 205° |
| 2026-04-23 15:23 | 40.73006 | 68.84708 | 20671 ft | 276 kts | 205° |
| 2026-04-23 15:23 | 40.71217 | 68.83767 | 20762 ft | 280 kts | 205° |
| 2026-04-23 15:23 | 40.69401 | 68.82814 | 20882 ft | 283 kts | 205° |
| 2026-04-23 15:23 | 40.67574 | 68.81856 | 21119 ft | 281 kts | 205° |
| 2026-04-23 15:24 | 40.65770 | 68.80910 | 21318 ft | 281 kts | 205° |
| 2026-04-23 15:24 | 40.63949 | 68.79955 | 21428 ft | 284 kts | 205° |
| 2026-04-23 15:24 | 40.62127 | 68.79000 | 21595 ft | 284 kts | 205° |
| 2026-04-23 15:24 | 40.60305 | 68.78046 | 21807 ft | 283 kts | 205° |
| 2026-04-23 15:25 | 40.58461 | 68.77078 | 21950 ft | 284 kts | 205° |
| 2026-04-23 15:25 | 40.56875 | 68.75528 | 21692 ft | 293 kts | 229° |
| 2026-04-23 15:25 | 40.55976 | 68.74213 | 21774 ft | 292 kts | 230° |
| 2026-04-23 15:25 | 40.54289 | 68.71668 | 22664 ft | 267 kts | 231° |
| 2026-04-23 15:26 | 40.53053 | 68.69783 | 22548 ft | 281 kts | 231° |
| 2026-04-23 15:26 | 40.51748 | 68.67789 | 22346 ft | 292 kts | 231° |
| 2026-04-23 15:26 | 40.50463 | 68.65829 | 22823 ft | 279 kts | 231° |
| 2026-04-23 15:26 | 40.49222 | 68.63934 | 23159 ft | 274 kts | 231° |
| 2026-04-23 15:27 | 40.47953 | 68.61995 | 22973 ft | 287 kts | 231° |
| 2026-04-23 15:27 | 40.46645 | 68.59998 | 23051 ft | 288 kts | 231° |
| 2026-04-23 15:27 | 40.45365 | 68.58051 | 23481 ft | 278 kts | 231° |
| 2026-04-23 15:27 | 40.44101 | 68.56123 | 23583 ft | 281 kts | 231° |
| 2026-04-23 15:28 | 40.42809 | 68.54156 | 23483 ft | 290 kts | 231° |
| 2026-04-23 15:28 | 40.41494 | 68.52154 | 23714 ft | 285 kts | 231° |
| 2026-04-23 15:28 | 40.40213 | 68.50208 | 24009 ft | 281 kts | 231° |
| 2026-04-23 15:28 | 40.38931 | 68.48259 | 24010 ft | 286 kts | 231° |
| 2026-04-23 15:29 | 40.37637 | 68.46292 | 24025 ft | 290 kts | 231° |
| 2026-04-23 15:29 | 40.36319 | 68.44292 | 24283 ft | 285 kts | 231° |
| 2026-04-23 15:29 | 40.35036 | 68.42347 | 24452 ft | 284 kts | 231° |
| 2026-04-23 15:29 | 40.33738 | 68.40379 | 24431 ft | 289 kts | 231° |
| 2026-04-23 15:30 | 40.32414 | 68.38373 | 24525 ft | 289 kts | 231° |
| 2026-04-23 15:30 | 40.31117 | 68.36408 | 24736 ft | 286 kts | 231° |
| 2026-04-23 15:30 | 40.29816 | 68.34441 | 24812 ft | 287 kts | 231° |
| 2026-04-23 15:30 | 40.28490 | 68.32436 | 24821 ft | 291 kts | 231° |
| 2026-04-23 15:31 | 40.27179 | 68.30454 | 24959 ft | 289 kts | 231° |
| 2026-04-23 15:31 | 40.25870 | 68.28478 | 25115 ft | 287 kts | 231° |
| 2026-04-23 15:31 | 40.24548 | 68.26483 | 25152 ft | 289 kts | 231° |
| 2026-04-23 15:31 | 40.23225 | 68.24489 | 25191 ft | 291 kts | 231° |
| 2026-04-23 15:32 | 40.21897 | 68.22487 | 25322 ft | 289 kts | 231° |
| 2026-04-23 15:32 | 40.20584 | 68.20511 | 25425 ft | 289 kts | 231° |
| 2026-04-23 15:32 | 40.19269 | 68.18530 | 25455 ft | 291 kts | 231° |
| 2026-04-23 15:32 | 40.17933 | 68.16520 | 25515 ft | 291 kts | 231° |
| 2026-04-23 15:33 | 40.16603 | 68.14521 | 25624 ft | 290 kts | 231° |
| 2026-04-23 15:33 | 40.15284 | 68.12540 | 25683 ft | 290 kts | 231° |
| 2026-04-23 15:33 | 40.13950 | 68.10537 | 25711 ft | 292 kts | 231° |
| 2026-04-23 15:33 | 40.12628 | 68.08553 | 25782 ft | 291 kts | 231° |
| 2026-04-23 15:34 | 40.11300 | 68.06564 | 25867 ft | 291 kts | 231° |
| 2026-04-23 15:34 | 40.09971 | 68.04572 | 25898 ft | 292 kts | 231° |
| 2026-04-23 15:34 | 40.08643 | 68.02583 | 25922 ft | 293 kts | 231° |
| 2026-04-23 15:34 | 40.07291 | 68.00560 | 25991 ft | 292 kts | 231° |
| 2026-04-23 15:35 | 40.05972 | 67.98587 | 26053 ft | 292 kts | 231° |
| 2026-04-23 15:35 | 40.04629 | 67.96581 | 26070 ft | 293 kts | 231° |
| 2026-04-23 15:35 | 40.03287 | 67.94577 | 26100 ft | 294 kts | 231° |
| 2026-04-23 15:35 | 40.01933 | 67.92555 | 26165 ft | 293 kts | 231° |
| 2026-04-23 15:36 | 40.00690 | 67.90704 | 26604 ft | 270 kts | 231° |
| 2026-04-23 15:36 | 39.99527 | 67.88972 | 26620 ft | 256 kts | 231° |
| 2026-04-23 15:36 | 39.98393 | 67.87280 | 26336 ft | 255 kts | 231° |
| 2026-04-23 15:36 | 39.97254 | 67.85583 | 26025 ft | 254 kts | 231° |
| 2026-04-23 15:37 | 39.96122 | 67.83897 | 25724 ft | 253 kts | 231° |
| 2026-04-23 15:37 | 39.94991 | 67.82214 | 25425 ft | 253 kts | 231° |
| 2026-04-23 15:37 | 39.94223 | 67.81072 | 25226 ft | 253 kts | 231° |
| 2026-04-23 15:37 | 39.92729 | 67.78852 | 24841 ft | 252 kts | 231° |
| 2026-04-23 15:38 | 39.91577 | 67.77142 | 24549 ft | 251 kts | 231° |
| 2026-04-23 15:38 | 39.90458 | 67.75481 | 24270 ft | 251 kts | 231° |
| 2026-04-23 15:38 | 39.89328 | 67.73804 | 23993 ft | 250 kts | 231° |
| 2026-04-23 15:38 | 39.88177 | 67.72098 | 23717 ft | 250 kts | 231° |
| 2026-04-23 15:39 | 39.87056 | 67.70437 | 23451 ft | 249 kts | 231° |
| 2026-04-23 15:39 | 39.85934 | 67.68777 | 23189 ft | 249 kts | 231° |
| 2026-04-23 15:39 | 39.84804 | 67.67103 | 22927 ft | 248 kts | 231° |
| 2026-04-23 15:39 | 39.83689 | 67.65455 | 22673 ft | 248 kts | 230° |
| 2026-04-23 15:40 | 39.82571 | 67.63801 | 22408 ft | 248 kts | 230° |
| 2026-04-23 15:40 | 39.81389 | 67.62210 | 22080 ft | 252 kts | 221° |
| 2026-04-23 15:40 | 39.80005 | 67.60815 | 21809 ft | 252 kts | 220° |
| 2026-04-23 15:40 | 39.78620 | 67.59436 | 21574 ft | 252 kts | 220° |
| 2026-04-23 15:41 | 39.77205 | 67.58033 | 21397 ft | 259 kts | 220° |
| 2026-04-23 15:41 | 39.75770 | 67.56615 | 21351 ft | 260 kts | 220° |
| 2026-04-23 15:41 | 39.74350 | 67.55215 | 21330 ft | 260 kts | 220° |
| 2026-04-23 15:41 | 39.72926 | 67.53812 | 21311 ft | 260 kts | 220° |
| 2026-04-23 15:42 | 39.71488 | 67.52396 | 21291 ft | 260 kts | 219° |
| 2026-04-23 15:42 | 39.70067 | 67.50996 | 21270 ft | 260 kts | 219° |
| 2026-04-23 15:42 | 39.68615 | 67.49567 | 21250 ft | 260 kts | 219° |
| 2026-04-23 15:42 | 39.67192 | 67.48169 | 21230 ft | 259 kts | 219° |
| 2026-04-23 15:43 | 39.65742 | 67.46744 | 21211 ft | 259 kts | 219° |
| 2026-04-23 15:43 | 39.64316 | 67.45343 | 21192 ft | 259 kts | 219° |
| 2026-04-23 15:43 | 39.62880 | 67.43934 | 21174 ft | 259 kts | 219° |
| 2026-04-23 15:43 | 39.61446 | 67.42527 | 21157 ft | 259 kts | 219° |
| 2026-04-23 15:44 | 39.60017 | 67.41125 | 21139 ft | 259 kts | 219° |
| 2026-04-23 15:44 | 39.58563 | 67.39701 | 21122 ft | 259 kts | 219° |
| 2026-04-23 15:44 | 39.57141 | 67.38308 | 21097 ft | 255 kts | 219° |
| 2026-04-23 15:44 | 39.55750 | 67.36946 | 20986 ft | 253 kts | 219° |
| 2026-04-23 15:45 | 39.54359 | 67.35585 | 20833 ft | 253 kts | 219° |
| 2026-04-23 15:45 | 39.52945 | 67.34203 | 20679 ft | 252 kts | 219° |
| 2026-04-23 15:45 | 39.51560 | 67.32848 | 20537 ft | 252 kts | 219° |
| 2026-04-23 15:45 | 39.50162 | 67.31482 | 20396 ft | 252 kts | 219° |
| 2026-04-23 15:46 | 39.48768 | 67.30121 | 20258 ft | 252 kts | 219° |
| 2026-04-23 15:46 | 39.47365 | 67.28751 | 20120 ft | 251 kts | 219° |
| 2026-04-23 15:46 | 39.45998 | 67.27418 | 20109 ft | 246 kts | 219° |
| 2026-04-23 15:46 | 39.44697 | 67.26150 | 20175 ft | 240 kts | 219° |
| 2026-04-23 15:47 | 39.43398 | 67.24960 | 20052 ft | 243 kts | 209° |
| 2026-04-23 15:47 | 39.41744 | 67.24663 | 20026 ft | 247 kts | 180° |
| 2026-04-23 15:47 | 39.40082 | 67.24843 | 20120 ft | 242 kts | 178° |
| 2026-04-23 15:47 | 39.38412 | 67.25069 | 20072 ft | 242 kts | 178° |
| 2026-04-23 15:48 | 39.36762 | 67.25311 | 20064 ft | 241 kts | 177° |
| 2026-04-23 15:48 | 39.35106 | 67.25564 | 20052 ft | 240 kts | 177° |
| 2026-04-23 15:48 | 39.33473 | 67.25817 | 20062 ft | 238 kts | 177° |
| 2026-04-23 15:48 | 39.31831 | 67.26074 | 20074 ft | 236 kts | 177° |
| 2026-04-23 15:49 | 39.30207 | 67.26329 | 20061 ft | 236 kts | 177° |
| 2026-04-23 15:49 | 39.28583 | 67.26584 | 20057 ft | 236 kts | 177° |
| 2026-04-23 15:49 | 39.26944 | 67.26842 | 20053 ft | 235 kts | 177° |
| 2026-04-23 15:49 | 39.25343 | 67.27093 | 20049 ft | 235 kts | 177° |
| 2026-04-23 15:50 | 39.23759 | 67.27341 | 20059 ft | 243 kts | 177° |
| 2026-04-23 15:50 | 39.22069 | 67.27763 | 20113 ft | 261 kts | 160° |
| 2026-04-23 15:50 | 39.20546 | 67.29012 | 20252 ft | 269 kts | 149° |
| 2026-04-23 15:50 | 39.19050 | 67.30365 | 20412 ft | 274 kts | 148° |
| 2026-04-23 15:51 | 39.17562 | 67.31728 | 20671 ft | 273 kts | 148° |
| 2026-04-23 15:51 | 39.16039 | 67.33125 | 20921 ft | 274 kts | 148° |
| 2026-04-23 15:51 | 39.14505 | 67.34534 | 20856 ft | 274 kts | 148° |
| 2026-04-23 15:51 | 39.12987 | 67.35928 | 20754 ft | 274 kts | 148° |
| 2026-04-23 15:52 | 39.11470 | 67.37323 | 20672 ft | 274 kts | 148° |
| 2026-04-23 15:52 | 39.09944 | 67.38723 | 20594 ft | 274 kts | 148° |
| 2026-04-23 15:52 | 39.08405 | 67.40136 | 20517 ft | 274 kts | 148° |
| 2026-04-23 15:52 | 39.06879 | 67.41535 | 20441 ft | 273 kts | 148° |
| 2026-04-23 15:53 | 39.05346 | 67.42941 | 20366 ft | 273 kts | 148° |
| 2026-04-23 15:53 | 39.03839 | 67.44322 | 20295 ft | 273 kts | 148° |
| 2026-04-23 15:53 | 39.02364 | 67.45672 | 20217 ft | 273 kts | 148° |
| 2026-04-23 15:53 | 39.00883 | 67.47026 | 20127 ft | 274 kts | 148° |
| 2026-04-23 15:54 | 38.99431 | 67.48356 | 20308 ft | 265 kts | 148° |
| 2026-04-23 15:54 | 38.98003 | 67.49661 | 20290 ft | 265 kts | 148° |
| 2026-04-23 15:54 | 38.96516 | 67.50976 | 20251 ft | 265 kts | 154° |
| 2026-04-23 15:54 | 38.94957 | 67.51921 | 20242 ft | 263 kts | 159° |
| 2026-04-23 15:55 | 38.93377 | 67.52836 | 20252 ft | 263 kts | 159° |
| 2026-04-23 15:55 | 38.91878 | 67.53697 | 20236 ft | 262 kts | 159° |
| 2026-04-23 15:55 | 38.90442 | 67.54521 | 20201 ft | 257 kts | 158° |
| 2026-04-23 15:55 | 38.89330 | 67.55157 | 20146 ft | 254 kts | 158° |
| 2026-04-23 15:56 | 38.87620 | 67.56135 | 20089 ft | 249 kts | 158° |
| 2026-04-23 15:56 | 38.86061 | 67.57028 | 20080 ft | 244 kts | 158° |
| 2026-04-23 15:56 | 38.84564 | 67.57884 | 20079 ft | 239 kts | 158° |
| 2026-04-23 15:56 | 38.83076 | 67.58735 | 20079 ft | 234 kts | 158° |
| 2026-04-23 15:57 | 38.81697 | 67.59521 | 19941 ft | 238 kts | 158° |
| 2026-04-23 15:57 | 38.80158 | 67.60397 | 19560 ft | 251 kts | 158° |
| 2026-04-23 15:57 | 38.78536 | 67.61320 | 19228 ft | 259 kts | 158° |
| 2026-04-23 15:57 | 38.76893 | 67.62257 | 19027 ft | 260 kts | 158° |
| 2026-04-23 15:58 | 38.75238 | 67.63200 | 18859 ft | 259 kts | 158° |
| 2026-04-23 15:58 | 38.73618 | 67.64123 | 18701 ft | 253 kts | 158° |
| 2026-04-23 15:58 | 38.72059 | 67.65011 | 18398 ft | 245 kts | 158° |
| 2026-04-23 15:58 | 38.70501 | 67.65897 | 17968 ft | 243 kts | 158° |
| 2026-04-23 15:59 | 38.68962 | 67.66771 | 17529 ft | 241 kts | 158° |
| 2026-04-23 15:59 | 38.67463 | 67.67622 | 17101 ft | 239 kts | 158° |
| 2026-04-23 15:59 | 38.65926 | 67.68494 | 16594 ft | 241 kts | 158° |
| 2026-04-23 15:59 | 38.64417 | 67.69350 | 16124 ft | 240 kts | 158° |
| 2026-04-23 16:00 | 38.62892 | 67.70216 | 15672 ft | 239 kts | 157° |
| 2026-04-23 16:00 | 38.61388 | 67.71069 | 15229 ft | 237 kts | 157° |
| 2026-04-23 16:00 | 38.59887 | 67.71920 | 14786 ft | 235 kts | 157° |
| 2026-04-23 16:00 | 38.58413 | 67.72755 | 14307 ft | 235 kts | 157° |
| 2026-04-23 16:01 | 38.56911 | 67.73605 | 13794 ft | 236 kts | 157° |
| 2026-04-23 16:01 | 38.55428 | 67.74416 | 13336 ft | 234 kts | 159° |
| 2026-04-23 16:01 | 38.53939 | 67.75188 | 12887 ft | 232 kts | 159° |
| 2026-04-23 16:01 | 38.52458 | 67.75953 | 12437 ft | 230 kts | 159° |
| 2026-04-23 16:02 | 38.50991 | 67.76709 | 11989 ft | 228 kts | 159° |
| 2026-04-23 16:02 | 38.49533 | 67.77460 | 11537 ft | 227 kts | 159° |
| 2026-04-23 16:02 | 38.48105 | 67.78196 | 11088 ft | 225 kts | 158° |
| 2026-04-23 16:02 | 38.46684 | 67.78934 | 10375 ft | 237 kts | 157° |
| 2026-04-23 16:03 | 38.45126 | 67.79732 | 9599 ft | 244 kts | 159° |
| 2026-04-23 16:03 | 38.43674 | 67.80470 | 9062 ft | 244 kts | 158° |
| 2026-04-23 16:03 | 38.42152 | 67.81253 | 8458 ft | 245 kts | 158° |
| 2026-04-23 16:03 | 38.40608 | 67.82048 | 7966 ft | 240 kts | 158° |
| 2026-04-23 16:04 | 38.39087 | 67.82832 | 7533 ft | 234 kts | 158° |
| 2026-04-23 16:04 | 38.37600 | 67.83594 | 7103 ft | 229 kts | 158° |
| 2026-04-23 16:04 | 38.36151 | 67.84337 | 6676 ft | 224 kts | 157° |
| 2026-04-23 16:04 | 38.34701 | 67.85085 | 6241 ft | 220 kts | 158° |
| 2026-04-23 16:05 | 38.33775 | 67.85558 | 6120 ft | 210 kts | 158° |
| 2026-04-23 16:05 | 38.32077 | 67.86427 | 6076 ft | 192 kts | 158° |
| 2026-04-23 16:05 | 38.30864 | 67.87047 | 6064 ft | 183 kts | 157° |
| 2026-04-23 16:05 | 38.29731 | 67.87627 | 6065 ft | 177 kts | 157° |
| 2026-04-23 16:06 | 38.28584 | 67.88250 | 6076 ft | 180 kts | 155° |
| 2026-04-23 16:06 | 38.27448 | 67.88947 | 6079 ft | 183 kts | 152° |
| 2026-04-23 16:06 | 38.26308 | 67.89693 | 6078 ft | 186 kts | 152° |
| 2026-04-23 16:06 | 38.25164 | 67.90447 | 6063 ft | 189 kts | 152° |
| 2026-04-23 16:07 | 38.23975 | 67.91226 | 6059 ft | 191 kts | 151° |
| 2026-04-23 16:07 | 38.22804 | 67.92000 | 6055 ft | 193 kts | 152° |
| 2026-04-23 16:07 | 38.21713 | 67.92974 | 6027 ft | 188 kts | 123° |
| 2026-04-23 16:07 | 38.21438 | 67.94500 | 6041 ft | 176 kts | 79° |
| 2026-04-23 16:08 | 38.21871 | 67.95839 | 6048 ft | 169 kts | 62° |
| 2026-04-23 16:08 | 38.22393 | 67.97115 | 5851 ft | 176 kts | 60° |
| 2026-04-23 16:08 | 38.22994 | 67.98520 | 5481 ft | 191 kts | 60° |
| 2026-04-23 16:08 | 38.23679 | 68.00082 | 4769 ft | 217 kts | 59° |
| 2026-04-23 16:09 | 38.24433 | 68.01776 | 4041 ft | 226 kts | 59° |
| 2026-04-23 16:09 | 38.25540 | 68.03151 | 3263 ft | 231 kts | 23° |
| 2026-04-23 16:09 | 38.27105 | 68.03236 | 2666 ft | 230 kts | 342° |
| 2026-04-23 16:09 | 38.28500 | 68.02457 | 2566 ft | 208 kts | 336° |
| 2026-04-23 16:10 | 38.29721 | 68.01701 | 2588 ft | 179 kts | 335° |
| 2026-04-23 16:10 | 38.30724 | 68.01061 | 2516 ft | 146 kts | 335° |
| 2026-04-23 16:10 | 38.31525 | 68.00544 | 2505 ft | 114 kts | 335° |
| 2026-04-23 16:10 | 38.32143 | 68.00146 | 2404 ft | 94 kts | 335° |
| 2026-04-23 16:11 | 38.32813 | 67.99722 | 2476 ft | 118 kts | 336° |
| 2026-04-23 16:11 | 38.33628 | 67.99210 | 2553 ft | 137 kts | 335° |
| 2026-04-23 16:11 | 38.34386 | 67.98721 | 2511 ft | 109 kts | 336° |
| 2026-04-23 16:11 | 38.35072 | 67.98289 | 2540 ft | 111 kts | 333° |
| 2026-04-23 16:12 | 38.35789 | 67.97807 | 2542 ft | 123 kts | 332° |
| 2026-04-23 16:12 | 38.36606 | 67.97269 | 2465 ft | 133 kts | 333° |
| 2026-04-23 16:12 | 38.37355 | 67.96775 | 2354 ft | 117 kts | 333° |
| 2026-04-23 16:12 | 38.38096 | 67.96291 | 2273 ft | 119 kts | 333° |
| 2026-04-23 16:13 | 38.38823 | 67.95815 | 2176 ft | 115 kts | 333° |
| 2026-04-23 16:13 | 38.40264 | 67.94859 | 1945 ft | 112 kts | 332° |
| 2026-04-23 16:13 | 38.40909 | 67.94435 | 1933 ft | 78 kts | 333° |
| 2026-04-23 16:14 | 38.41268 | 67.94199 | 1946 ft | 42 kts | 332° |
| 2026-04-23 16:14 | 38.41373 | 67.94108 | 1949 ft | 3 kts | 312° |
| 2026-04-23 16:14 | 38.41390 | 67.94093 | 1949 ft | 0 kts | 335° |
| 2026-04-23 16:15 | 38.41370 | 67.94144 | 1948 ft | 23 kts | 178° |
| 2026-04-23 16:15 | 38.41235 | 67.94218 | 1945 ft | 20 kts | 153° |
| 2026-04-23 16:15 | 38.41108 | 67.94302 | 1940 ft | 21 kts | 153° |
| 2026-04-23 16:15 | 38.41002 | 67.94395 | 1936 ft | 14 kts | 93° |
| 2026-04-23 16:16 | 38.41058 | 67.94492 | 1934 ft | 14 kts | 47° |
| 2026-04-23 16:16 | 38.41110 | 67.94569 | 1933 ft | 7 kts | 41° |
| 2026-04-23 16:16 | 38.41135 | 67.94559 | 1933 ft | 0 kts | 313° |
| 2026-04-23 16:16 | 38.41137 | 67.94556 | 1934 ft | 0 kts | 314° |
| 2026-04-23 16:17 | 38.41139 | 67.94554 | 1934 ft | 0 kts | 313° |